sensor_id;sensor_type;location;lat;lon;timestamp;temperature;humidity
52058;DHT22;38063;53.210;6.504;2022-11-15T00:02:07;7.50;99.90
52058;DHT22;38063;53.210;6.504;2022-11-15T00:04:33;7.50;99.90
52058;DHT22;38063;53.210;6.504;2022-11-15T00:06:59;7.50;99.90
52058;DHT22;38063;53.210;6.504;2022-11-15T00:09:25;7.50;99.90
52058;DHT22;38063;53.210;6.504;2022-11-15T00:11:51;7.40;99.90
52058;DHT22;38063;53.210;6.504;2022-11-15T00:14:17;7.40;99.90
52058;DHT22;38063;53.210;6.504;2022-11-15T00:16:43;7.40;99.90
52058;DHT22;38063;53.210;6.504;2022-11-15T00:19:09;7.30;99.90
52058;DHT22;38063;53.210;6.504;2022-11-15T00:21:35;7.20;99.90
52058;DHT22;38063;53.210;6.504;2022-11-15T00:24:00;7.20;99.90
52058;DHT22;38063;53.210;6.504;2022-11-15T00:26:26;7.10;99.90
52058;DHT22;38063;53.210;6.504;2022-11-15T00:28:52;7.10;99.90
52058;DHT22;38063;53.210;6.504;2022-11-15T00:31:19;7.00;99.90
52058;DHT22;38063;53.210;6.504;2022-11-15T00:33:44;6.90;99.90
52058;DHT22;38063;53.210;6.504;2022-11-15T00:36:10;6.90;99.90
52058;DHT22;38063;53.210;6.504;2022-11-15T00:38:38;6.90;99.90
52058;DHT22;38063;53.210;6.504;2022-11-15T00:41:04;6.90;99.90
52058;DHT22;38063;53.210;6.504;2022-11-15T00:43:30;6.80;99.90
52058;DHT22;38063;53.210;6.504;2022-11-15T00:45:56;6.90;99.90
52058;DHT22;38063;53.210;6.504;2022-11-15T00:48:22;6.90;99.90
52058;DHT22;38063;53.210;6.504;2022-11-15T00:50:48;6.90;99.90
52058;DHT22;38063;53.210;6.504;2022-11-15T00:53:14;7.00;99.90
52058;DHT22;38063;53.210;6.504;2022-11-15T00:55:40;6.90;99.90
52058;DHT22;38063;53.210;6.504;2022-11-15T00:58:05;6.90;99.90
52058;DHT22;38063;53.210;6.504;2022-11-15T01:00:31;7.00;99.90
52058;DHT22;38063;53.210;6.504;2022-11-15T01:02:56;7.00;99.90
52058;DHT22;38063;53.210;6.504;2022-11-15T01:05:22;7.00;99.90
52058;DHT22;38063;53.210;6.504;2022-11-15T01:07:52;7.00;99.90
52058;DHT22;38063;53.210;6.504;2022-11-15T01:10:18;7.00;99.90
52058;DHT22;38063;53.210;6.504;2022-11-15T01:12:43;7.10;99.90
52058;DHT22;38063;53.210;6.504;2022-11-15T01:15:09;7.10;99.90
52058;DHT22;38063;53.210;6.504;2022-11-15T01:17:35;7.10;99.90
52058;DHT22;38063;53.210;6.504;2022-11-15T01:20:01;7.10;99.90
52058;DHT22;38063;53.210;6.504;2022-11-15T01:22:27;7.10;99.90
52058;DHT22;38063;53.210;6.504;2022-11-15T01:24:52;7.10;99.90
52058;DHT22;38063;53.210;6.504;2022-11-15T01:27:18;7.10;99.90
52058;DHT22;38063;53.210;6.504;2022-11-15T01:29:44;7.00;99.90
52058;DHT22;38063;53.210;6.504;2022-11-15T01:32:09;7.00;99.90
52058;DHT22;38063;53.210;6.504;2022-11-15T01:34:35;7.10;99.90
52058;DHT22;38063;53.210;6.504;2022-11-15T01:37:01;7.00;99.90
52058;DHT22;38063;53.210;6.504;2022-11-15T01:39:27;7.00;99.90
52058;DHT22;38063;53.210;6.504;2022-11-15T01:41:53;7.40;99.90
52058;DHT22;38063;53.210;6.504;2022-11-15T01:44:36;7.00;99.90
52058;DHT22;38063;53.210;6.504;2022-11-15T01:47:15;7.40;99.90
52058;DHT22;38063;53.210;6.504;2022-11-15T01:50:10;7.10;99.90
52058;DHT22;38063;53.210;6.504;2022-11-15T01:52:38;7.10;99.90
52058;DHT22;38063;53.210;6.504;2022-11-15T01:55:09;7.00;99.90
52058;DHT22;38063;53.210;6.504;2022-11-15T01:57:36;7.00;99.90
52058;DHT22;38063;53.210;6.504;2022-11-15T02:00:04;7.00;99.90
52058;DHT22;38063;53.210;6.504;2022-11-15T02:02:30;7.00;99.90
52058;DHT22;38063;53.210;6.504;2022-11-15T02:04:56;7.00;99.90
52058;DHT22;38063;53.210;6.504;2022-11-15T02:07:22;7.00;99.90
52058;DHT22;38063;53.210;6.504;2022-11-15T02:09:48;7.00;99.90
52058;DHT22;38063;53.210;6.504;2022-11-15T02:12:17;7.00;99.90
52058;DHT22;38063;53.210;6.504;2022-11-15T02:14:51;7.00;99.90
52058;DHT22;38063;53.210;6.504;2022-11-15T02:23:04;7.00;99.90
52058;DHT22;38063;53.210;6.504;2022-11-15T02:25:41;7.00;99.90
52058;DHT22;38063;53.210;6.504;2022-11-15T02:36:01;7.00;99.90
52058;DHT22;38063;53.210;6.504;2022-11-15T02:38:54;7.00;99.90
52058;DHT22;38063;53.210;6.504;2022-11-15T02:41:48;7.00;99.90
52058;DHT22;38063;53.210;6.504;2022-11-15T02:44:30;7.00;99.90
52058;DHT22;38063;53.210;6.504;2022-11-15T02:47:01;7.00;99.90
52058;DHT22;38063;53.210;6.504;2022-11-15T02:49:40;7.00;99.90
52058;DHT22;38063;53.210;6.504;2022-11-15T02:52:06;7.00;99.90
52058;DHT22;38063;53.210;6.504;2022-11-15T02:54:33;7.00;99.90
52058;DHT22;38063;53.210;6.504;2022-11-15T02:57:14;7.00;99.90
52058;DHT22;38063;53.210;6.504;2022-11-15T03:05:34;7.10;99.90
52058;DHT22;38063;53.210;6.504;2022-11-15T03:11:08;7.10;99.90
52058;DHT22;38063;53.210;6.504;2022-11-15T03:16:34;7.10;99.90
52058;DHT22;38063;53.210;6.504;2022-11-15T03:19:12;7.00;99.90
52058;DHT22;38063;53.210;6.504;2022-11-15T03:21:40;7.00;99.90
52058;DHT22;38063;53.210;6.504;2022-11-15T03:24:08;7.00;99.90
52058;DHT22;38063;53.210;6.504;2022-11-15T03:26:36;7.30;99.90
52058;DHT22;38063;53.210;6.504;2022-11-15T03:29:08;7.00;99.90
52058;DHT22;38063;53.210;6.504;2022-11-15T03:31:39;7.10;99.90
52058;DHT22;38063;53.210;6.504;2022-11-15T03:36:57;7.10;99.90
52058;DHT22;38063;53.210;6.504;2022-11-15T03:39:23;7.10;99.90
52058;DHT22;38063;53.210;6.504;2022-11-15T03:42:08;7.10;99.90
52058;DHT22;38063;53.210;6.504;2022-11-15T03:44:57;7.10;99.90
52058;DHT22;38063;53.210;6.504;2022-11-15T03:50:08;7.10;99.90
52058;DHT22;38063;53.210;6.504;2022-11-15T03:52:35;7.10;99.90
52058;DHT22;38063;53.210;6.504;2022-11-15T03:55:03;7.10;99.90
52058;DHT22;38063;53.210;6.504;2022-11-15T03:57:29;7.10;99.90
52058;DHT22;38063;53.210;6.504;2022-11-15T03:59:55;7.20;99.90
52058;DHT22;38063;53.210;6.504;2022-11-15T04:02:20;7.20;99.90
52058;DHT22;38063;53.210;6.504;2022-11-15T04:04:46;7.20;99.90
52058;DHT22;38063;53.210;6.504;2022-11-15T04:07:11;7.20;99.90
52058;DHT22;38063;53.210;6.504;2022-11-15T04:09:37;7.60;99.90
52058;DHT22;38063;53.210;6.504;2022-11-15T04:12:23;7.20;99.90
52058;DHT22;38063;53.210;6.504;2022-11-15T04:17:45;7.30;99.90
52058;DHT22;38063;53.210;6.504;2022-11-15T04:20:30;7.30;99.90
52058;DHT22;38063;53.210;6.504;2022-11-15T04:23:20;7.30;99.90
52058;DHT22;38063;53.210;6.504;2022-11-15T04:26:14;7.30;99.90
52058;DHT22;38063;53.210;6.504;2022-11-15T04:28:41;7.50;99.90
52058;DHT22;38063;53.210;6.504;2022-11-15T04:31:25;7.30;99.90
52058;DHT22;38063;53.210;6.504;2022-11-15T04:33:51;7.40;99.90
52058;DHT22;38063;53.210;6.504;2022-11-15T04:36:17;7.40;99.90
52058;DHT22;38063;53.210;6.504;2022-11-15T04:39:01;7.40;99.90
52058;DHT22;38063;53.210;6.504;2022-11-15T04:41:27;7.40;99.90
52058;DHT22;38063;53.210;6.504;2022-11-15T04:43:52;7.40;99.90
52058;DHT22;38063;53.210;6.504;2022-11-15T04:46:18;7.40;99.90
52058;DHT22;38063;53.210;6.504;2022-11-15T04:48:43;7.50;99.90
52058;DHT22;38063;53.210;6.504;2022-11-15T04:51:09;7.50;99.90
52058;DHT22;38063;53.210;6.504;2022-11-15T04:53:35;7.50;99.90
52058;DHT22;38063;53.210;6.504;2022-11-15T04:56:00;7.50;99.90
52058;DHT22;38063;53.210;6.504;2022-11-15T04:58:26;7.60;99.90
52058;DHT22;38063;53.210;6.504;2022-11-15T05:00:51;7.60;99.90
52058;DHT22;38063;53.210;6.504;2022-11-15T05:03:17;7.60;99.90
52058;DHT22;38063;53.210;6.504;2022-11-15T05:06:01;7.60;99.90
52058;DHT22;38063;53.210;6.504;2022-11-15T05:08:27;7.60;99.90
52058;DHT22;38063;53.210;6.504;2022-11-15T05:10:52;7.60;99.90
52058;DHT22;38063;53.210;6.504;2022-11-15T05:13:18;7.70;99.90
52058;DHT22;38063;53.210;6.504;2022-11-15T05:15:44;7.60;99.90
52058;DHT22;38063;53.210;6.504;2022-11-15T05:18:10;7.70;99.90
52058;DHT22;38063;53.210;6.504;2022-11-15T05:20:36;7.70;99.90
52058;DHT22;38063;53.210;6.504;2022-11-15T05:23:02;7.70;99.90
52058;DHT22;38063;53.210;6.504;2022-11-15T05:25:28;7.80;99.90
52058;DHT22;38063;53.210;6.504;2022-11-15T05:27:53;7.70;99.90
52058;DHT22;38063;53.210;6.504;2022-11-15T05:30:19;7.80;99.90
52058;DHT22;38063;53.210;6.504;2022-11-15T05:32:45;7.80;99.90
52058;DHT22;38063;53.210;6.504;2022-11-15T05:35:20;7.80;99.90
52058;DHT22;38063;53.210;6.504;2022-11-15T05:37:47;7.80;99.90
52058;DHT22;38063;53.210;6.504;2022-11-15T05:40:13;7.90;99.90
52058;DHT22;38063;53.210;6.504;2022-11-15T05:42:38;7.90;99.90
52058;DHT22;38063;53.210;6.504;2022-11-15T05:45:06;7.90;99.90
52058;DHT22;38063;53.210;6.504;2022-11-15T05:47:34;7.90;99.90
52058;DHT22;38063;53.210;6.504;2022-11-15T05:50:00;7.90;99.90
52058;DHT22;38063;53.210;6.504;2022-11-15T05:52:30;8.10;99.90
52058;DHT22;38063;53.210;6.504;2022-11-15T05:54:58;8.00;99.90
52058;DHT22;38063;53.210;6.504;2022-11-15T05:57:24;8.00;99.90
52058;DHT22;38063;53.210;6.504;2022-11-15T05:59:50;8.00;99.90
52058;DHT22;38063;53.210;6.504;2022-11-15T06:02:16;8.00;99.90
52058;DHT22;38063;53.210;6.504;2022-11-15T06:04:42;8.10;99.90
52058;DHT22;38063;53.210;6.504;2022-11-15T06:07:07;8.10;99.90
52058;DHT22;38063;53.210;6.504;2022-11-15T06:09:33;8.10;99.90
52058;DHT22;38063;53.210;6.504;2022-11-15T06:11:58;8.10;99.90
52058;DHT22;38063;53.210;6.504;2022-11-15T06:14:24;8.10;99.90
52058;DHT22;38063;53.210;6.504;2022-11-15T06:16:50;8.20;99.90
52058;DHT22;38063;53.210;6.504;2022-11-15T06:19:18;8.20;99.90
52058;DHT22;38063;53.210;6.504;2022-11-15T06:21:44;8.30;99.90
52058;DHT22;38063;53.210;6.504;2022-11-15T06:24:09;8.60;99.90
52058;DHT22;38063;53.210;6.504;2022-11-15T06:26:35;8.30;99.90
52058;DHT22;38063;53.210;6.504;2022-11-15T06:29:03;8.30;99.90
52058;DHT22;38063;53.210;6.504;2022-11-15T06:31:29;8.30;99.90
52058;DHT22;38063;53.210;6.504;2022-11-15T06:33:54;8.40;99.90
52058;DHT22;38063;53.210;6.504;2022-11-15T06:36:20;8.40;99.90
52058;DHT22;38063;53.210;6.504;2022-11-15T06:38:46;8.50;99.90
52058;DHT22;38063;53.210;6.504;2022-11-15T06:41:13;8.50;99.90
52058;DHT22;38063;53.210;6.504;2022-11-15T06:43:39;8.50;99.90
52058;DHT22;38063;53.210;6.504;2022-11-15T06:46:06;8.60;99.90
52058;DHT22;38063;53.210;6.504;2022-11-15T06:48:33;8.60;99.90
52058;DHT22;38063;53.210;6.504;2022-11-15T06:51:00;8.60;99.90
52058;DHT22;38063;53.210;6.504;2022-11-15T06:53:26;8.70;99.90
52058;DHT22;38063;53.210;6.504;2022-11-15T06:55:52;8.70;99.90
52058;DHT22;38063;53.210;6.504;2022-11-15T06:58:18;8.80;99.90
52058;DHT22;38063;53.210;6.504;2022-11-15T07:00:45;8.80;99.90
52058;DHT22;38063;53.210;6.504;2022-11-15T07:03:11;8.80;99.90
52058;DHT22;38063;53.210;6.504;2022-11-15T07:05:37;8.90;99.90
52058;DHT22;38063;53.210;6.504;2022-11-15T07:08:02;8.90;99.90
52058;DHT22;38063;53.210;6.504;2022-11-15T07:10:28;8.90;99.90
52058;DHT22;38063;53.210;6.504;2022-11-15T07:12:55;9.30;99.90
52058;DHT22;38063;53.210;6.504;2022-11-15T07:15:23;9.00;99.90
52058;DHT22;38063;53.210;6.504;2022-11-15T07:17:49;9.00;99.90
52058;DHT22;38063;53.210;6.504;2022-11-15T07:20:16;9.00;99.90
52058;DHT22;38063;53.210;6.504;2022-11-15T07:22:42;9.00;99.90
52058;DHT22;38063;53.210;6.504;2022-11-15T07:25:09;9.10;99.90
52058;DHT22;38063;53.210;6.504;2022-11-15T07:27:35;9.10;99.90
52058;DHT22;38063;53.210;6.504;2022-11-15T07:30:00;9.20;99.90
52058;DHT22;38063;53.210;6.504;2022-11-15T07:32:26;9.20;99.90
52058;DHT22;38063;53.210;6.504;2022-11-15T07:34:52;9.20;99.90
52058;DHT22;38063;53.210;6.504;2022-11-15T07:37:18;9.20;99.90
52058;DHT22;38063;53.210;6.504;2022-11-15T07:39:44;9.30;99.90
52058;DHT22;38063;53.210;6.504;2022-11-15T07:42:09;9.30;99.90
52058;DHT22;38063;53.210;6.504;2022-11-15T07:44:54;9.30;99.90
52058;DHT22;38063;53.210;6.504;2022-11-15T07:47:19;9.30;99.90
52058;DHT22;38063;53.210;6.504;2022-11-15T07:49:46;9.30;99.90
52058;DHT22;38063;53.210;6.504;2022-11-15T07:52:12;9.40;99.90
52058;DHT22;38063;53.210;6.504;2022-11-15T07:54:38;9.60;99.90
52058;DHT22;38063;53.210;6.504;2022-11-15T07:57:05;9.50;99.90
52058;DHT22;38063;53.210;6.504;2022-11-15T07:59:31;9.50;99.90
52058;DHT22;38063;53.210;6.504;2022-11-15T08:01:56;9.50;99.90
52058;DHT22;38063;53.210;6.504;2022-11-15T08:04:22;9.50;99.90
52058;DHT22;38063;53.210;6.504;2022-11-15T08:06:48;9.50;99.90
52058;DHT22;38063;53.210;6.504;2022-11-15T08:09:13;9.60;99.90
52058;DHT22;38063;53.210;6.504;2022-11-15T08:11:39;9.60;99.90
52058;DHT22;38063;53.210;6.504;2022-11-15T08:14:04;9.60;99.90
52058;DHT22;38063;53.210;6.504;2022-11-15T08:16:30;9.60;99.90
52058;DHT22;38063;53.210;6.504;2022-11-15T08:18:56;9.70;99.90
52058;DHT22;38063;53.210;6.504;2022-11-15T08:21:22;9.70;99.90
52058;DHT22;38063;53.210;6.504;2022-11-15T08:23:48;9.70;99.90
52058;DHT22;38063;53.210;6.504;2022-11-15T08:26:13;9.80;99.90
52058;DHT22;38063;53.210;6.504;2022-11-15T08:28:40;9.80;99.90
52058;DHT22;38063;53.210;6.504;2022-11-15T08:31:05;9.90;99.90
52058;DHT22;38063;53.210;6.504;2022-11-15T08:33:32;9.90;99.90
52058;DHT22;38063;53.210;6.504;2022-11-15T08:35:59;10.00;99.90
52058;DHT22;38063;53.210;6.504;2022-11-15T08:38:26;10.00;99.90
52058;DHT22;38063;53.210;6.504;2022-11-15T08:40:53;10.00;99.90
52058;DHT22;38063;53.210;6.504;2022-11-15T08:43:25;10.10;99.90
52058;DHT22;38063;53.210;6.504;2022-11-15T08:45:50;10.10;99.90
52058;DHT22;38063;53.210;6.504;2022-11-15T08:48:16;10.10;99.90
52058;DHT22;38063;53.210;6.504;2022-11-15T08:50:42;10.20;99.90
52058;DHT22;38063;53.210;6.504;2022-11-15T08:53:10;10.20;99.90
52058;DHT22;38063;53.210;6.504;2022-11-15T08:55:37;10.20;99.90
52058;DHT22;38063;53.210;6.504;2022-11-15T08:58:03;10.20;99.90
52058;DHT22;38063;53.210;6.504;2022-11-15T09:00:29;10.30;99.90
52058;DHT22;38063;53.210;6.504;2022-11-15T09:02:55;10.30;99.90
52058;DHT22;38063;53.210;6.504;2022-11-15T09:05:20;10.30;99.90
52058;DHT22;38063;53.210;6.504;2022-11-15T09:07:46;10.40;99.90
52058;DHT22;38063;53.210;6.504;2022-11-15T09:10:11;10.40;99.90
52058;DHT22;38063;53.210;6.504;2022-11-15T09:12:37;10.50;99.90
52058;DHT22;38063;53.210;6.504;2022-11-15T09:15:05;10.50;99.90
52058;DHT22;38063;53.210;6.504;2022-11-15T09:17:30;10.50;99.90
52058;DHT22;38063;53.210;6.504;2022-11-15T09:19:56;10.60;99.90
52058;DHT22;38063;53.210;6.504;2022-11-15T09:22:22;10.70;99.90
52058;DHT22;38063;53.210;6.504;2022-11-15T09:24:47;10.80;99.90
52058;DHT22;38063;53.210;6.504;2022-11-15T09:27:13;10.80;99.90
52058;DHT22;38063;53.210;6.504;2022-11-15T09:29:39;10.80;99.90
52058;DHT22;38063;53.210;6.504;2022-11-15T09:32:04;10.90;99.90
52058;DHT22;38063;53.210;6.504;2022-11-15T09:34:30;10.90;99.90
52058;DHT22;38063;53.210;6.504;2022-11-15T09:36:56;10.90;99.90
52058;DHT22;38063;53.210;6.504;2022-11-15T09:39:21;11.00;99.90
52058;DHT22;38063;53.210;6.504;2022-11-15T09:47:26;11.00;99.90
52058;DHT22;38063;53.210;6.504;2022-11-15T09:49:57;11.10;99.90
52058;DHT22;38063;53.210;6.504;2022-11-15T09:52:24;11.10;99.90
52058;DHT22;38063;53.210;6.504;2022-11-15T09:54:51;11.10;99.90
52058;DHT22;38063;53.210;6.504;2022-11-15T09:57:52;11.20;99.90
52058;DHT22;38063;53.210;6.504;2022-11-15T10:00:38;11.20;99.90
52058;DHT22;38063;53.210;6.504;2022-11-15T10:03:08;11.20;99.90
52058;DHT22;38063;53.210;6.504;2022-11-15T10:05:39;11.20;99.90
52058;DHT22;38063;53.210;6.504;2022-11-15T10:11:04;11.20;99.90
52058;DHT22;38063;53.210;6.504;2022-11-15T10:13:36;11.30;99.90
52058;DHT22;38063;53.210;6.504;2022-11-15T10:24:44;11.40;99.90
52058;DHT22;38063;53.210;6.504;2022-11-15T10:27:14;11.40;99.90
52058;DHT22;38063;53.210;6.504;2022-11-15T10:29:45;11.40;99.90
52058;DHT22;38063;53.210;6.504;2022-11-15T10:32:13;11.60;99.90
52058;DHT22;38063;53.210;6.504;2022-11-15T10:34:39;11.50;99.90
52058;DHT22;38063;53.210;6.504;2022-11-15T10:37:05;11.50;99.90
52058;DHT22;38063;53.210;6.504;2022-11-15T10:39:30;12.50;99.90
52058;DHT22;38063;53.210;6.504;2022-11-15T10:41:56;11.50;99.90
52058;DHT22;38063;53.210;6.504;2022-11-15T10:44:30;11.60;99.90
52058;DHT22;38063;53.210;6.504;2022-11-15T10:49:24;11.60;99.90
52058;DHT22;38063;53.210;6.504;2022-11-15T10:52:13;11.80;99.90
52058;DHT22;38063;53.210;6.504;2022-11-15T10:57:37;11.60;99.90
52058;DHT22;38063;53.210;6.504;2022-11-15T11:00:27;11.60;99.90
52058;DHT22;38063;53.210;6.504;2022-11-15T11:03:37;11.70;99.90
52058;DHT22;38063;53.210;6.504;2022-11-15T11:06:13;11.70;99.90
52058;DHT22;38063;53.210;6.504;2022-11-15T11:08:39;11.80;99.90
52058;DHT22;38063;53.210;6.504;2022-11-15T11:11:06;11.90;99.90
52058;DHT22;38063;53.210;6.504;2022-11-15T11:13:38;11.80;99.90
52058;DHT22;38063;53.210;6.504;2022-11-15T11:16:28;11.80;99.90
52058;DHT22;38063;53.210;6.504;2022-11-15T11:24:42;12.00;99.90
52058;DHT22;38063;53.210;6.504;2022-11-15T11:39:20;12.30;99.90
52058;DHT22;38063;53.210;6.504;2022-11-15T11:42:14;12.30;99.90
52058;DHT22;38063;53.210;6.504;2022-11-15T11:50:46;12.50;99.90
52058;DHT22;38063;53.210;6.504;2022-11-15T11:53:34;12.50;99.90
52058;DHT22;38063;53.210;6.504;2022-11-15T11:56:51;12.50;99.90
52058;DHT22;38063;53.210;6.504;2022-11-15T11:59:09;12.50;99.90
52058;DHT22;38063;53.210;6.504;2022-11-15T12:01:43;13.00;99.90
52058;DHT22;38063;53.210;6.504;2022-11-15T12:17:36;12.40;99.90
52058;DHT22;38063;53.210;6.504;2022-11-15T12:20:18;12.40;99.90
52058;DHT22;38063;53.210;6.504;2022-11-15T12:22:53;12.40;99.90
52058;DHT22;38063;53.210;6.504;2022-11-15T12:31:12;12.30;99.90
52058;DHT22;38063;53.210;6.504;2022-11-15T12:33:43;12.30;99.90
52058;DHT22;38063;53.210;6.504;2022-11-15T12:39:00;12.20;99.90
52058;DHT22;38063;53.210;6.504;2022-11-15T12:41:31;12.20;99.90
52058;DHT22;38063;53.210;6.504;2022-11-15T12:43:57;12.30;99.90
52058;DHT22;38063;53.210;6.504;2022-11-15T12:49:03;12.20;99.90
52058;DHT22;38063;53.210;6.504;2022-11-15T13:02:39;12.30;99.90
52058;DHT22;38063;53.210;6.504;2022-11-15T13:17:42;12.60;99.90
52058;DHT22;38063;53.210;6.504;2022-11-15T13:22:48;12.70;99.90
52058;DHT22;38063;53.210;6.504;2022-11-15T13:27:58;12.70;99.90
52058;DHT22;38063;53.210;6.504;2022-11-15T13:30:26;12.70;99.90
52058;DHT22;38063;53.210;6.504;2022-11-15T13:32:53;12.60;99.90
52058;DHT22;38063;53.210;6.504;2022-11-15T13:35:24;12.50;99.90
52058;DHT22;38063;53.210;6.504;2022-11-15T13:37:50;12.50;99.90
52058;DHT22;38063;53.210;6.504;2022-11-15T13:40:27;12.50;99.90
52058;DHT22;38063;53.210;6.504;2022-11-15T13:42:55;12.40;99.90
52058;DHT22;38063;53.210;6.504;2022-11-15T13:45:21;12.40;99.90
52058;DHT22;38063;53.210;6.504;2022-11-15T13:47:55;12.40;99.90
52058;DHT22;38063;53.210;6.504;2022-11-15T13:50:27;12.40;99.90
52058;DHT22;38063;53.210;6.504;2022-11-15T13:52:58;12.40;99.90
52058;DHT22;38063;53.210;6.504;2022-11-15T13:55:25;12.50;99.90
52058;DHT22;38063;53.210;6.504;2022-11-15T13:57:59;12.30;99.90
52058;DHT22;38063;53.210;6.504;2022-11-15T14:00:38;12.40;99.90
52058;DHT22;38063;53.210;6.504;2022-11-15T14:03:24;12.20;99.90
52058;DHT22;38063;53.210;6.504;2022-11-15T14:06:27;12.20;99.90
52058;DHT22;38063;53.210;6.504;2022-11-15T14:11:35;12.20;99.90
52058;DHT22;38063;53.210;6.504;2022-11-15T14:16:42;12.10;99.90
52058;DHT22;38063;53.210;6.504;2022-11-15T14:19:33;12.00;99.90
52058;DHT22;38063;53.210;6.504;2022-11-15T14:24:45;11.90;99.90
52058;DHT22;38063;53.210;6.504;2022-11-15T14:27:26;11.90;99.90
52058;DHT22;38063;53.210;6.504;2022-11-15T14:29:53;11.90;99.90
52058;DHT22;38063;53.210;6.504;2022-11-15T14:32:21;11.80;99.90
52058;DHT22;38063;53.210;6.504;2022-11-15T14:34:49;11.80;99.90
52058;DHT22;38063;53.210;6.504;2022-11-15T14:37:26;11.70;99.90
52058;DHT22;38063;53.210;6.504;2022-11-15T14:39:53;11.60;99.90
52058;DHT22;38063;53.210;6.504;2022-11-15T14:42:19;11.60;99.90
52058;DHT22;38063;53.210;6.504;2022-11-15T14:44:46;11.60;99.90
52058;DHT22;38063;53.210;6.504;2022-11-15T14:47:11;11.50;99.90
52058;DHT22;38063;53.210;6.504;2022-11-15T14:49:37;11.50;99.90
52058;DHT22;38063;53.210;6.504;2022-11-15T14:52:16;11.40;99.90
52058;DHT22;38063;53.210;6.504;2022-11-15T14:54:44;11.40;99.90
52058;DHT22;38063;53.210;6.504;2022-11-15T14:57:10;11.50;99.90
52058;DHT22;38063;53.210;6.504;2022-11-15T14:59:36;11.20;99.90
52058;DHT22;38063;53.210;6.504;2022-11-15T15:02:01;11.20;99.90
52058;DHT22;38063;53.210;6.504;2022-11-15T15:04:27;11.10;99.90
52058;DHT22;38063;53.210;6.504;2022-11-15T15:06:52;11.10;99.90
52058;DHT22;38063;53.210;6.504;2022-11-15T15:09:18;11.00;99.90
52058;DHT22;38063;53.210;6.504;2022-11-15T15:11:44;11.00;99.90
52058;DHT22;38063;53.210;6.504;2022-11-15T15:14:10;10.90;99.90
52058;DHT22;38063;53.210;6.504;2022-11-15T15:16:36;10.90;99.90
52058;DHT22;38063;53.210;6.504;2022-11-15T15:19:02;10.80;99.90
52058;DHT22;38063;53.210;6.504;2022-11-15T15:21:28;10.70;99.90
52058;DHT22;38063;53.210;6.504;2022-11-15T15:23:54;10.70;99.90
52058;DHT22;38063;53.210;6.504;2022-11-15T15:26:20;10.60;99.90
52058;DHT22;38063;53.210;6.504;2022-11-15T15:28:46;10.60;99.90
52058;DHT22;38063;53.210;6.504;2022-11-15T15:31:14;10.60;99.90
52058;DHT22;38063;53.210;6.504;2022-11-15T15:33:39;10.50;99.90
52058;DHT22;38063;53.210;6.504;2022-11-15T15:36:13;10.40;99.90
52058;DHT22;38063;53.210;6.504;2022-11-15T15:38:38;10.40;99.90
52058;DHT22;38063;53.210;6.504;2022-11-15T15:41:10;10.30;99.90
52058;DHT22;38063;53.210;6.504;2022-11-15T15:43:36;10.30;99.90
52058;DHT22;38063;53.210;6.504;2022-11-15T15:46:02;10.20;99.90
52058;DHT22;38063;53.210;6.504;2022-11-15T15:48:27;10.20;99.90
52058;DHT22;38063;53.210;6.504;2022-11-15T15:50:53;10.10;99.90
52058;DHT22;38063;53.210;6.504;2022-11-15T15:53:18;10.20;99.90
52058;DHT22;38063;53.210;6.504;2022-11-15T15:55:44;10.30;99.90
52058;DHT22;38063;53.210;6.504;2022-11-15T15:58:10;10.10;99.90
52058;DHT22;38063;53.210;6.504;2022-11-15T16:00:36;10.10;99.90
52058;DHT22;38063;53.210;6.504;2022-11-15T16:03:02;10.00;99.90
52058;DHT22;38063;53.210;6.504;2022-11-15T16:05:27;10.00;99.90
52058;DHT22;38063;53.210;6.504;2022-11-15T16:07:53;10.00;99.90
52058;DHT22;38063;53.210;6.504;2022-11-15T16:10:33;10.00;99.90
52058;DHT22;38063;53.210;6.504;2022-11-15T16:13:00;10.00;99.90
52058;DHT22;38063;53.210;6.504;2022-11-15T16:15:27;10.00;99.90
52058;DHT22;38063;53.210;6.504;2022-11-15T16:17:55;9.90;99.90
52058;DHT22;38063;53.210;6.504;2022-11-15T16:20:39;9.90;99.90
52058;DHT22;38063;53.210;6.504;2022-11-15T16:23:11;9.90;99.90
52058;DHT22;38063;53.210;6.504;2022-11-15T16:25:45;9.80;99.90
52058;DHT22;38063;53.210;6.504;2022-11-15T16:28:25;9.80;99.90
52058;DHT22;38063;53.210;6.504;2022-11-15T16:33:27;9.80;99.90
52058;DHT22;38063;53.210;6.504;2022-11-15T16:35:55;9.70;99.90
52058;DHT22;38063;53.210;6.504;2022-11-15T16:38:21;10.00;99.90
52058;DHT22;38063;53.210;6.504;2022-11-15T16:40:47;10.40;99.90
52058;DHT22;38063;53.210;6.504;2022-11-15T16:43:12;9.70;99.90
52058;DHT22;38063;53.210;6.504;2022-11-15T16:45:38;9.70;99.90
52058;DHT22;38063;53.210;6.504;2022-11-15T16:48:04;9.70;99.90
52058;DHT22;38063;53.210;6.504;2022-11-15T16:50:32;9.80;99.90
52058;DHT22;38063;53.210;6.504;2022-11-15T16:53:04;9.80;99.90
52058;DHT22;38063;53.210;6.504;2022-11-15T16:55:29;9.90;99.90
52058;DHT22;38063;53.210;6.504;2022-11-15T16:57:56;9.90;99.90
52058;DHT22;38063;53.210;6.504;2022-11-15T17:00:26;9.90;99.90
52058;DHT22;38063;53.210;6.504;2022-11-15T17:02:52;9.90;99.90
52058;DHT22;38063;53.210;6.504;2022-11-15T17:05:20;9.90;99.90
52058;DHT22;38063;53.210;6.504;2022-11-15T17:07:48;10.00;99.90
52058;DHT22;38063;53.210;6.504;2022-11-15T17:10:15;10.20;99.90
52058;DHT22;38063;53.210;6.504;2022-11-15T17:12:41;10.00;99.90
52058;DHT22;38063;53.210;6.504;2022-11-15T17:15:07;10.00;99.90
52058;DHT22;38063;53.210;6.504;2022-11-15T17:17:33;10.10;99.90
52058;DHT22;38063;53.210;6.504;2022-11-15T17:19:58;10.10;99.90
52058;DHT22;38063;53.210;6.504;2022-11-15T17:22:24;10.10;99.90
52058;DHT22;38063;53.210;6.504;2022-11-15T17:24:50;10.10;99.90
52058;DHT22;38063;53.210;6.504;2022-11-15T17:27:15;10.20;99.90
52058;DHT22;38063;53.210;6.504;2022-11-15T17:29:42;10.20;99.90
52058;DHT22;38063;53.210;6.504;2022-11-15T17:32:08;10.20;99.90
52058;DHT22;38063;53.210;6.504;2022-11-15T17:34:34;10.20;99.90
52058;DHT22;38063;53.210;6.504;2022-11-15T17:36:59;10.20;99.90
52058;DHT22;38063;53.210;6.504;2022-11-15T17:39:25;10.20;99.90
52058;DHT22;38063;53.210;6.504;2022-11-15T17:41:51;10.30;99.90
52058;DHT22;38063;53.210;6.504;2022-11-15T17:44:16;10.20;99.90
52058;DHT22;38063;53.210;6.504;2022-11-15T17:46:42;10.30;99.90
52058;DHT22;38063;53.210;6.504;2022-11-15T17:49:08;10.20;99.90
52058;DHT22;38063;53.210;6.504;2022-11-15T17:51:34;10.20;99.90
52058;DHT22;38063;53.210;6.504;2022-11-15T17:54:00;10.20;99.90
52058;DHT22;38063;53.210;6.504;2022-11-15T17:56:27;10.20;99.90
52058;DHT22;38063;53.210;6.504;2022-11-15T17:58:54;10.20;99.90
52058;DHT22;38063;53.210;6.504;2022-11-15T18:01:25;10.20;99.90
52058;DHT22;38063;53.210;6.504;2022-11-15T18:03:52;10.20;99.90
52058;DHT22;38063;53.210;6.504;2022-11-15T18:06:19;10.20;99.90
52058;DHT22;38063;53.210;6.504;2022-11-15T18:08:47;10.10;99.90
52058;DHT22;38063;53.210;6.504;2022-11-15T18:11:15;10.10;99.90
52058;DHT22;38063;53.210;6.504;2022-11-15T18:13:43;10.10;99.90
52058;DHT22;38063;53.210;6.504;2022-11-15T18:16:17;10.10;99.90